createdAt,value
2022-09-14T00:00:20.182Z,18.90
2022-09-14T00:02:47.249Z,18.90
2022-09-14T00:05:14.102Z,18.90
2022-09-14T00:07:41.098Z,18.80
2022-09-14T00:10:08.127Z,18.80
2022-09-14T00:12:35.032Z,18.90
2022-09-14T00:15:02.016Z,18.80
2022-09-14T00:17:28.809Z,18.80
2022-09-14T00:19:55.699Z,18.80
2022-09-14T00:22:22.520Z,18.90
2022-09-14T00:24:49.491Z,18.90
2022-09-14T00:27:16.472Z,18.80
2022-09-14T00:29:43.340Z,18.80
2022-09-14T00:32:10.206Z,18.70
2022-09-14T00:34:37.111Z,18.80
2022-09-14T00:37:04.239Z,18.70
2022-09-14T00:39:31.261Z,18.50
2022-09-14T00:41:58.413Z,18.40
2022-09-14T00:44:25.237Z,18.30
2022-09-14T00:46:53.375Z,18.10
2022-09-14T00:49:27.809Z,18.00
2022-09-14T00:52:04.027Z,18.00
2022-09-14T00:54:31.295Z,17.90
2022-09-14T00:56:59.367Z,18.00
2022-09-14T00:59:29.030Z,17.90
2022-09-14T01:01:56.011Z,17.90
2022-09-14T01:04:24.059Z,17.90
2022-09-14T01:06:59.554Z,17.90
2022-09-14T01:09:33.502Z,17.90
2022-09-14T01:12:11.446Z,17.90
2022-09-14T01:14:41.826Z,17.90
2022-09-14T01:17:22.576Z,18.00
2022-09-14T01:20:01.652Z,17.90
2022-09-14T01:22:44.918Z,17.90
2022-09-14T01:25:19.118Z,17.80
2022-09-14T01:27:46.839Z,17.90
2022-09-14T01:30:22.753Z,17.80
2022-09-14T01:32:56.231Z,17.90
2022-09-14T01:35:26.417Z,18.00
2022-09-14T01:38:00.759Z,18.00
2022-09-14T01:40:27.596Z,17.90
2022-09-14T01:42:57.939Z,18.00
2022-09-14T01:45:27.457Z,18.00
2022-09-14T01:47:56.058Z,18.00
2022-09-14T01:50:25.935Z,18.10
2022-09-14T01:52:56.043Z,18.30
2022-09-14T01:55:28.614Z,18.30
2022-09-14T01:57:59.801Z,18.30
2022-09-14T02:00:27.138Z,18.20
2022-09-14T02:02:55.133Z,18.20
2022-09-14T02:05:25.022Z,18.00
2022-09-14T02:07:52.524Z,18.00
2022-09-14T02:10:19.574Z,17.90
2022-09-14T02:12:46.641Z,18.00
2022-09-14T02:15:14.530Z,17.90
2022-09-14T02:17:41.689Z,17.80
2022-09-14T02:20:11.311Z,17.70
2022-09-14T02:22:38.168Z,17.60
2022-09-14T02:25:05.191Z,17.40
2022-09-14T02:27:31.984Z,17.10
2022-09-14T02:29:58.895Z,17.00
2022-09-14T02:32:34.032Z,17.00
2022-09-14T02:35:15.457Z,17.00
2022-09-14T02:37:48.103Z,16.90
2022-09-14T02:40:21.271Z,17.00
2022-09-14T02:42:48.135Z,17.10
2022-09-14T02:45:24.947Z,17.10
2022-09-14T02:47:55.516Z,17.00
2022-09-14T02:50:22.282Z,17.00
2022-09-14T02:52:56.266Z,17.00
2022-09-14T02:55:24.171Z,16.90
2022-09-14T02:58:05.604Z,17.00
2022-09-14T03:00:36.804Z,16.90
2022-09-14T03:03:05.070Z,16.80
2022-09-14T03:05:32.972Z,16.90
2022-09-14T03:08:00.411Z,17.00
2022-09-14T03:10:27.500Z,17.00
2022-09-14T03:12:54.451Z,17.00
2022-09-14T03:15:21.331Z,17.00
2022-09-14T03:17:48.795Z,16.80
2022-09-14T03:20:16.334Z,16.80
2022-09-14T03:22:43.213Z,16.90
2022-09-14T03:25:10.176Z,16.90
2022-09-14T03:27:37.072Z,16.90
2022-09-14T03:30:04.671Z,16.80
2022-09-14T03:32:31.990Z,16.90
2022-09-14T03:34:59.317Z,16.90
2022-09-14T03:37:26.630Z,16.80
2022-09-14T03:39:53.501Z,16.80
2022-09-14T03:42:20.308Z,16.80
2022-09-14T03:44:47.228Z,16.80
2022-09-14T03:47:14.147Z,16.80
2022-09-14T03:49:41.214Z,16.90
2022-09-14T03:52:08.584Z,16.90
2022-09-14T03:54:35.381Z,16.80
2022-09-14T03:57:02.243Z,16.80
2022-09-14T03:59:29.119Z,16.80
2022-09-14T04:01:56.092Z,16.80
2022-09-14T04:04:23.019Z,16.70
2022-09-14T04:06:49.876Z,16.70
2022-09-14T04:09:17.373Z,16.70
2022-09-14T04:11:44.189Z,16.70
2022-09-14T04:14:11.490Z,16.70
2022-09-14T04:16:38.722Z,16.70
2022-09-14T04:19:06.226Z,16.70
2022-09-14T04:21:33.400Z,16.80
2022-09-14T04:24:16.468Z,16.90
2022-09-14T04:26:44.002Z,16.80
2022-09-14T04:29:11.330Z,16.70
2022-09-14T04:31:38.736Z,16.70
2022-09-14T04:34:05.645Z,16.60
2022-09-14T04:36:32.976Z,16.70
2022-09-14T04:39:01.141Z,16.70
2022-09-14T04:41:29.182Z,16.70
2022-09-14T04:43:56.647Z,16.70
2022-09-14T04:46:25.090Z,16.70
2022-09-14T04:48:52.234Z,16.70
2022-09-14T04:51:20.286Z,16.70
2022-09-14T04:53:48.131Z,16.70
2022-09-14T04:56:15.059Z,16.80
2022-09-14T04:58:50.699Z,16.90
2022-09-14T05:01:29.633Z,16.90
2022-09-14T05:03:57.171Z,16.70
2022-09-14T05:06:25.205Z,16.80
2022-09-14T05:08:52.745Z,16.80
2022-09-14T05:11:21.778Z,16.80
2022-09-14T05:13:50.229Z,16.80
2022-09-14T05:16:36.618Z,16.70
2022-09-14T05:19:07.818Z,16.70
2022-09-14T05:21:36.031Z,16.70
2022-09-14T05:24:04.446Z,16.70
2022-09-14T05:26:31.758Z,16.80
2022-09-14T05:28:59.432Z,16.80
2022-09-14T05:31:27.343Z,16.70
2022-09-14T05:33:54.262Z,16.70
2022-09-14T05:36:21.361Z,16.70
2022-09-14T05:38:48.163Z,16.70
2022-09-14T05:41:15.644Z,16.80
2022-09-14T05:43:42.591Z,16.80
2022-09-14T05:46:14.194Z,16.80
2022-09-14T05:48:41.503Z,16.80
2022-09-14T05:51:14.039Z,16.80
2022-09-14T05:53:40.911Z,16.80
2022-09-14T05:56:11.951Z,16.80
2022-09-14T05:58:39.488Z,16.90
2022-09-14T06:01:10.703Z,17.00
2022-09-14T06:03:38.006Z,17.00
2022-09-14T06:06:05.827Z,17.00
2022-09-14T06:08:33.234Z,16.90
2022-09-14T06:11:13.679Z,17.00
2022-09-14T06:13:41.083Z,17.00
2022-09-14T06:16:09.107Z,16.90
2022-09-14T06:18:36.798Z,16.90
2022-09-14T06:21:03.916Z,17.00
2022-09-14T06:23:31.564Z,17.00
2022-09-14T06:25:59.642Z,17.10
2022-09-14T06:28:27.206Z,17.20
2022-09-14T06:30:54.090Z,17.10
2022-09-14T06:33:21.027Z,17.30
2022-09-14T06:35:58.892Z,17.30
2022-09-14T06:38:26.461Z,17.20
2022-09-14T06:41:00.279Z,17.30
2022-09-14T06:43:28.291Z,17.30
2022-09-14T06:45:56.389Z,17.40
2022-09-14T06:48:23.399Z,17.30
2022-09-14T06:50:50.195Z,17.30
2022-09-14T06:53:17.084Z,17.40
2022-09-14T06:55:45.424Z,17.40
2022-09-14T06:58:12.357Z,17.50
2022-09-14T07:00:39.281Z,17.40
2022-09-14T07:03:06.640Z,17.50
2022-09-14T07:05:33.660Z,17.60
2022-09-14T07:08:00.527Z,17.50
2022-09-14T07:10:28.333Z,17.60
2022-09-14T07:12:55.538Z,17.60
2022-09-14T07:15:22.540Z,17.60
2022-09-14T07:17:49.332Z,17.70
2022-09-14T07:20:16.491Z,17.80
2022-09-14T07:22:43.510Z,17.80
2022-09-14T07:25:10.544Z,17.80
2022-09-14T07:27:39.542Z,17.90
2022-09-14T07:30:07.591Z,17.90
2022-09-14T07:32:34.497Z,17.80
2022-09-14T07:35:01.524Z,17.90
2022-09-14T07:37:29.488Z,17.90
2022-09-14T07:39:57.289Z,17.90
2022-09-14T07:42:24.220Z,18.00
2022-09-14T07:44:51.069Z,18.10
2022-09-14T07:47:17.862Z,18.20
2022-09-14T07:49:44.724Z,18.30
2022-09-14T07:52:11.855Z,18.30
2022-09-14T07:54:39.405Z,18.40
2022-09-14T07:57:06.319Z,18.50
2022-09-14T07:59:37.354Z,18.50
2022-09-14T08:02:08.853Z,18.70
2022-09-14T08:04:36.328Z,18.80
2022-09-14T08:07:04.479Z,18.90
2022-09-14T08:09:31.646Z,19.30
2022-09-14T08:11:58.423Z,19.30
2022-09-14T08:14:25.251Z,19.30
2022-09-14T08:16:52.412Z,19.50
2022-09-14T08:19:21.021Z,19.50
2022-09-14T08:21:48.225Z,19.40
2022-09-14T08:24:19.547Z,19.40
2022-09-14T08:26:46.628Z,19.70
2022-09-14T08:29:14.282Z,20.00
2022-09-14T08:31:41.281Z,20.10
2022-09-14T08:34:08.646Z,20.00
2022-09-14T08:36:36.894Z,20.10
2022-09-14T08:39:04.726Z,20.30
2022-09-14T08:41:34.494Z,20.60
2022-09-14T08:44:20.109Z,20.80
2022-09-14T08:46:49.130Z,21.00
2022-09-14T08:49:16.197Z,21.70
2022-09-14T08:51:43.170Z,22.10
2022-09-14T08:54:10.193Z,22.10
2022-09-14T08:56:39.978Z,22.10
2022-09-14T08:59:18.933Z,22.20
2022-09-14T09:01:54.382Z,22.10
2022-09-14T09:04:24.457Z,22.20
2022-09-14T09:07:21.606Z,22.30
2022-09-14T09:09:52.534Z,22.10
2022-09-14T09:12:21.398Z,22.00
2022-09-14T09:14:59.506Z,22.20
2022-09-14T09:17:38.798Z,22.20
2022-09-14T09:20:06.689Z,23.10
2022-09-14T09:22:38.231Z,24.00
2022-09-14T09:25:10.946Z,24.30
2022-09-14T09:27:37.796Z,24.20
2022-09-14T09:30:04.795Z,24.70
2022-09-14T09:32:32.397Z,24.90
2022-09-14T09:35:23.389Z,24.40
2022-09-14T09:37:55.705Z,24.60
2022-09-14T09:40:28.885Z,24.40
2022-09-14T09:43:10.318Z,25.30
2022-09-14T09:45:55.718Z,26.10
2022-09-14T09:48:24.851Z,26.10
2022-09-14T09:51:11.965Z,25.60
2022-09-14T09:53:46.468Z,26.00
2022-09-14T09:56:25.679Z,25.30
2022-09-14T09:58:52.651Z,25.80
2022-09-14T10:01:21.791Z,26.80
2022-09-14T10:04:01.018Z,28.20
2022-09-14T10:06:27.905Z,29.40
2022-09-14T10:08:57.382Z,29.50
2022-09-14T10:11:38.332Z,29.80
2022-09-14T10:14:06.412Z,29.80
2022-09-14T10:16:36.453Z,29.10
2022-09-14T10:19:03.639Z,29.00
2022-09-14T10:21:31.381Z,29.30
2022-09-14T10:24:04.905Z,29.40
2022-09-14T10:26:33.488Z,28.80
2022-09-14T10:29:19.081Z,29.00
2022-09-14T10:31:46.781Z,28.90
2022-09-14T10:34:18.313Z,30.80
2022-09-14T10:36:48.072Z,30.80
2022-09-14T10:39:16.047Z,30.30
2022-09-14T10:41:49.145Z,30.60
2022-09-14T10:44:32.035Z,30.20
2022-09-14T10:47:25.216Z,29.90
2022-09-14T10:50:01.233Z,29.20
2022-09-14T10:52:43.702Z,30.20
2022-09-14T10:55:19.966Z,30.50
2022-09-14T10:57:49.828Z,29.70
2022-09-14T11:00:18.959Z,28.70
2022-09-14T11:02:55.019Z,28.90
2022-09-14T11:05:24.820Z,30.30
2022-09-14T11:08:10.100Z,30.90
2022-09-14T11:10:49.184Z,31.60
2022-09-14T11:13:19.109Z,30.70
2022-09-14T11:15:51.958Z,29.50
2022-09-14T11:18:31.055Z,29.00
2022-09-14T11:20:58.174Z,29.70
2022-09-14T11:23:37.214Z,29.30
2022-09-14T11:26:10.702Z,30.40
2022-09-14T11:28:40.474Z,30.80
2022-09-14T11:31:12.126Z,31.80
2022-09-14T11:33:43.598Z,32.00
2022-09-14T11:36:16.740Z,32.40
2022-09-14T11:38:47.765Z,32.50
2022-09-14T11:41:24.133Z,32.10
2022-09-14T11:43:57.998Z,31.50
2022-09-14T11:46:31.651Z,31.60
2022-09-14T11:49:14.182Z,31.20
2022-09-14T11:51:48.086Z,32.20
2022-09-14T11:54:16.845Z,33.50
2022-09-14T11:56:47.043Z,31.80
2022-09-14T11:59:33.047Z,30.30
2022-09-14T12:02:20.255Z,28.90
2022-09-14T12:05:05.695Z,27.60
2022-09-14T12:07:47.999Z,27.20
2022-09-14T12:10:15.219Z,27.00
2022-09-14T12:12:46.500Z,26.70
2022-09-14T12:15:32.277Z,26.70
2022-09-14T12:18:05.585Z,26.40
2022-09-14T12:20:42.834Z,26.30
2022-09-14T12:23:15.706Z,26.30
2022-09-14T12:26:00.799Z,25.90
2022-09-14T12:28:29.558Z,25.60
2022-09-14T12:30:56.580Z,25.50
2022-09-14T12:33:32.919Z,25.30
2022-09-14T12:36:12.264Z,25.30
2022-09-14T12:38:39.130Z,25.10
2022-09-14T12:41:08.647Z,25.00
2022-09-14T12:43:35.551Z,24.80
2022-09-14T12:46:05.390Z,24.60
2022-09-14T12:48:47.375Z,24.50
2022-09-14T12:51:26.599Z,24.40
2022-09-14T12:54:08.611Z,23.80
2022-09-14T12:56:47.480Z,22.90
2022-09-14T12:59:20.794Z,22.00
2022-09-14T13:02:06.226Z,21.10
2022-09-14T13:04:34.228Z,20.70
2022-09-14T13:07:02.546Z,20.40
2022-09-14T13:09:31.980Z,20.20
2022-09-14T13:12:00.683Z,20.10
2022-09-14T13:14:30.670Z,19.90
2022-09-14T13:16:59.603Z,19.80
2022-09-14T13:19:27.756Z,19.70
2022-09-14T13:21:55.980Z,19.80
2022-09-14T13:24:24.689Z,19.80
2022-09-14T13:26:52.261Z,19.70
2022-09-14T13:29:19.171Z,19.60
2022-09-14T13:31:46.140Z,19.30
2022-09-14T13:34:25.191Z,19.00
2022-09-14T13:36:52.508Z,18.70
2022-09-14T13:39:19.304Z,18.50
2022-09-14T13:41:46.298Z,18.40
2022-09-14T13:44:13.194Z,18.30
2022-09-14T13:46:40.195Z,18.20
2022-09-14T13:49:07.515Z,18.20
2022-09-14T13:51:35.480Z,18.10
2022-09-14T13:54:17.534Z,18.10
2022-09-14T13:56:44.538Z,18.10
2022-09-14T13:59:16.091Z,18.20
2022-09-14T14:01:46.194Z,18.20
2022-09-14T14:04:30.842Z,18.30
2022-09-14T14:07:12.832Z,18.40
2022-09-14T14:09:42.683Z,18.40
2022-09-14T14:12:11.896Z,18.50
2022-09-14T14:14:39.176Z,18.50
2022-09-14T14:17:33.213Z,18.50
2022-09-14T14:20:26.081Z,18.60
2022-09-14T14:23:11.335Z,18.60
2022-09-14T14:25:52.038Z,18.60
2022-09-14T14:28:30.310Z,18.70
2022-09-14T14:31:03.060Z,18.70
2022-09-14T14:33:33.806Z,18.80
2022-09-14T14:36:02.014Z,18.90
2022-09-14T14:38:28.963Z,19.00
2022-09-14T14:40:56.077Z,19.00
2022-09-14T14:43:25.410Z,19.00
2022-09-14T14:46:01.033Z,19.10
2022-09-14T14:48:29.247Z,19.00
2022-09-14T14:50:56.334Z,19.00
2022-09-14T14:53:24.765Z,19.00
2022-09-14T14:55:52.255Z,18.90
2022-09-14T14:58:21.809Z,19.00
2022-09-14T15:00:49.740Z,18.90
2022-09-14T15:03:19.000Z,18.90
2022-09-14T15:05:47.381Z,18.90
2022-09-14T15:08:16.958Z,18.80
2022-09-14T15:10:44.323Z,18.80
2022-09-14T15:13:12.514Z,18.80
2022-09-14T15:15:42.913Z,18.70
2022-09-14T15:18:10.007Z,18.70
2022-09-14T15:20:37.622Z,18.80
2022-09-14T15:23:04.982Z,18.70
2022-09-14T15:25:31.928Z,18.70
2022-09-14T15:27:58.953Z,18.60
2022-09-14T15:30:25.904Z,18.60
2022-09-14T15:32:52.925Z,18.60
2022-09-14T15:35:19.966Z,18.60
2022-09-14T15:37:47.952Z,18.60
2022-09-14T15:40:14.956Z,18.60
2022-09-14T15:42:42.043Z,18.50
2022-09-14T15:45:09.265Z,18.50
2022-09-14T15:47:36.737Z,18.50
2022-09-14T15:50:04.775Z,18.50
2022-09-14T15:52:34.134Z,18.50
2022-09-14T15:55:01.035Z,18.50
2022-09-14T15:57:28.053Z,18.50
2022-09-14T15:59:55.309Z,18.40
2022-09-14T16:02:22.289Z,18.30
2022-09-14T16:04:49.518Z,18.40
2022-09-14T16:07:16.471Z,18.40
2022-09-14T16:09:43.347Z,18.40
2022-09-14T16:12:12.302Z,18.40
2022-09-14T16:14:39.350Z,18.40
2022-09-14T16:17:08.227Z,18.40
2022-09-14T16:19:35.370Z,18.50
2022-09-14T16:22:02.257Z,18.50
2022-09-14T16:24:29.446Z,18.60
2022-09-14T16:26:57.891Z,18.60
2022-09-14T16:29:24.976Z,18.80
2022-09-14T16:31:52.145Z,18.70
2022-09-14T16:34:26.308Z,18.80
2022-09-14T16:36:53.455Z,18.80
2022-09-14T16:39:22.986Z,18.80
2022-09-14T16:41:50.566Z,18.70
2022-09-14T16:44:19.004Z,18.70
2022-09-14T16:46:46.167Z,18.80
2022-09-14T16:49:12.977Z,18.90
2022-09-14T16:51:40.219Z,18.90
2022-09-14T16:54:07.040Z,18.80
2022-09-14T16:56:38.526Z,18.70
2022-09-14T16:59:06.375Z,18.80
2022-09-14T17:01:34.970Z,18.80
2022-09-14T17:04:03.880Z,18.70
2022-09-14T17:06:31.882Z,18.60
2022-09-14T17:09:02.927Z,18.50
2022-09-14T17:11:30.551Z,18.50
2022-09-14T17:13:57.396Z,18.50
2022-09-14T17:16:25.248Z,18.50
2022-09-14T17:18:53.214Z,18.50
2022-09-14T17:21:21.680Z,18.50
2022-09-14T17:23:49.170Z,18.50
2022-09-14T17:26:18.537Z,18.60
2022-09-14T17:28:47.330Z,18.50
2022-09-14T17:31:14.934Z,18.60
2022-09-14T17:33:41.838Z,18.50
2022-09-14T17:36:09.139Z,18.50
2022-09-14T17:38:37.181Z,18.40
2022-09-14T17:41:08.706Z,18.40
2022-09-14T17:43:36.196Z,18.40
2022-09-14T17:46:03.638Z,18.30
2022-09-14T17:48:34.876Z,18.30
2022-09-14T17:51:06.339Z,18.30
2022-09-14T17:53:37.379Z,18.20
2022-09-14T17:56:05.102Z,18.10
2022-09-14T17:58:32.104Z,18.00
2022-09-14T18:01:06.017Z,18.10
2022-09-14T18:03:33.103Z,18.00
2022-09-14T18:06:00.091Z,18.00
2022-09-14T18:08:27.089Z,18.00
2022-09-14T18:10:53.921Z,17.90
2022-09-14T18:13:20.991Z,17.80
2022-09-14T18:15:47.977Z,17.80
2022-09-14T18:18:15.066Z,17.90
2022-09-14T18:20:41.843Z,17.90
2022-09-14T18:23:08.687Z,18.00
2022-09-14T18:25:39.561Z,17.90
2022-09-14T18:28:06.508Z,17.90
2022-09-14T18:30:34.499Z,17.90
2022-09-14T18:33:01.456Z,18.10
2022-09-14T18:35:28.799Z,18.10
2022-09-14T18:37:55.807Z,18.00
2022-09-14T18:40:22.710Z,18.00
2022-09-14T18:42:50.010Z,17.90
2022-09-14T18:45:16.884Z,17.80
2022-09-14T18:47:43.764Z,17.70
2022-09-14T18:50:10.898Z,17.60
2022-09-14T18:52:37.794Z,17.70
2022-09-14T18:55:05.174Z,17.60
2022-09-14T18:57:32.011Z,17.50
2022-09-14T18:59:58.787Z,17.50
2022-09-14T19:02:25.723Z,17.30
2022-09-14T19:04:54.084Z,17.40
2022-09-14T19:07:20.989Z,17.40
2022-09-14T19:09:48.501Z,17.40
2022-09-14T19:12:15.590Z,17.30
2022-09-14T19:14:42.381Z,17.30
2022-09-14T19:17:09.156Z,17.40
2022-09-14T19:19:36.122Z,17.40
2022-09-14T19:22:03.144Z,17.30
2022-09-14T19:24:33.167Z,17.30
2022-09-14T19:27:00.115Z,17.30
2022-09-14T19:29:28.590Z,17.30
2022-09-14T19:31:56.623Z,17.30
2022-09-14T19:34:24.737Z,17.30
2022-09-14T19:36:53.688Z,17.30
2022-09-14T19:39:21.285Z,17.20
2022-09-14T19:41:48.319Z,17.20
2022-09-14T19:44:15.552Z,17.40
2022-09-14T19:46:42.952Z,17.40
2022-09-14T19:49:17.459Z,17.50
2022-09-14T19:51:44.771Z,17.50
2022-09-14T19:54:12.108Z,17.50
2022-09-14T19:56:39.371Z,17.50
2022-09-14T19:59:07.324Z,17.70
2022-09-14T20:01:35.460Z,17.70
2022-09-14T20:04:02.762Z,17.90
2022-09-14T20:06:40.470Z,18.00
2022-09-14T20:09:08.982Z,18.10
2022-09-14T20:11:36.849Z,18.20
2022-09-14T20:14:04.906Z,18.20
2022-09-14T20:16:33.690Z,18.10
2022-09-14T20:19:03.731Z,18.00
2022-09-14T20:21:30.563Z,17.80
2022-09-14T20:24:17.671Z,17.60
2022-09-14T20:26:46.038Z,17.50
2022-09-14T20:29:13.294Z,17.40
2022-09-14T20:31:40.320Z,17.30
2022-09-14T20:34:07.354Z,17.20
2022-09-14T20:36:34.160Z,17.10
2022-09-14T20:39:00.987Z,17.00
2022-09-14T20:41:29.194Z,17.00
2022-09-14T20:43:56.289Z,17.00
2022-09-14T20:46:43.177Z,17.00
2022-09-14T20:49:11.712Z,17.00
2022-09-14T20:51:39.143Z,17.00
2022-09-14T20:54:06.611Z,17.00
2022-09-14T20:56:34.335Z,17.10
2022-09-14T20:59:01.672Z,17.20
2022-09-14T21:01:30.573Z,17.40
2022-09-14T21:04:05.079Z,17.40
2022-09-14T21:06:32.145Z,17.40
2022-09-14T21:09:00.063Z,17.40
2022-09-14T21:11:27.138Z,17.40
2022-09-14T21:13:54.676Z,17.50
2022-09-14T21:16:21.528Z,17.50
2022-09-14T21:18:52.948Z,17.50
2022-09-14T21:21:20.183Z,17.40
2022-09-14T21:23:48.676Z,17.40
2022-09-14T21:26:15.634Z,17.40
2022-09-14T21:28:42.803Z,17.30
2022-09-14T21:31:14.686Z,17.20
2022-09-14T21:33:42.355Z,17.30
2022-09-14T21:36:10.694Z,17.20
2022-09-14T21:38:38.125Z,17.40
2022-09-14T21:41:07.104Z,17.30
2022-09-14T21:43:38.365Z,17.30
2022-09-14T21:46:05.857Z,17.20
2022-09-14T21:48:32.927Z,17.10
2022-09-14T21:51:07.514Z,17.20
2022-09-14T21:53:34.722Z,17.20
2022-09-14T21:56:05.491Z,17.10
2022-09-14T21:58:32.579Z,17.10
2022-09-14T22:01:00.526Z,17.20
2022-09-14T22:03:27.751Z,17.30
2022-09-14T22:05:58.798Z,17.20
2022-09-14T22:08:26.327Z,17.10
2022-09-14T22:10:53.115Z,17.10
2022-09-14T22:13:20.194Z,17.10
2022-09-14T22:15:47.255Z,17.10
2022-09-14T22:18:14.405Z,17.20
2022-09-14T22:20:41.311Z,17.10
2022-09-14T22:23:08.207Z,17.10
2022-09-14T22:25:38.963Z,17.10
2022-09-14T22:28:05.855Z,17.10
2022-09-14T22:30:32.726Z,17.00
2022-09-14T22:32:59.673Z,17.00
2022-09-14T22:35:26.649Z,17.00
2022-09-14T22:37:53.523Z,17.00
2022-09-14T22:40:20.362Z,16.90
2022-09-14T22:42:47.312Z,17.00
2022-09-14T22:45:14.112Z,17.10
2022-09-14T22:47:41.076Z,17.00
2022-09-14T22:50:08.177Z,17.00
2022-09-14T22:52:35.030Z,17.00
2022-09-14T22:55:01.850Z,17.00
2022-09-14T22:57:28.623Z,17.00
2022-09-14T22:59:55.655Z,17.00
2022-09-14T23:02:22.789Z,17.00
2022-09-14T23:04:50.264Z,17.10
2022-09-14T23:07:17.671Z,17.00
2022-09-14T23:09:44.456Z,17.10
2022-09-14T23:12:11.359Z,17.20
2022-09-14T23:14:38.222Z,17.20
2022-09-14T23:17:05.137Z,17.30
2022-09-14T23:19:31.986Z,17.20
2022-09-14T23:21:59.619Z,17.20
2022-09-14T23:24:26.520Z,17.10
2022-09-14T23:26:53.378Z,17.20
2022-09-14T23:29:20.208Z,17.30
2022-09-14T23:31:47.074Z,17.20
2022-09-14T23:34:13.996Z,17.30
2022-09-14T23:36:40.821Z,17.20
2022-09-14T23:39:07.647Z,17.40
2022-09-14T23:41:34.522Z,17.40
2022-09-14T23:44:01.484Z,17.40
2022-09-14T23:46:28.428Z,17.30
2022-09-14T23:48:55.316Z,17.40
2022-09-14T23:51:22.749Z,17.40
2022-09-14T23:53:49.628Z,17.50
2022-09-14T23:56:16.742Z,17.50
2022-09-14T23:58:43.962Z,17.50
